sensor_id;sensor_type;location;lat;lon;timestamp;P1;durP1;ratioP1;P2;durP2;ratioP2
28068;SDS011;15382;47.578;8.086;2022-11-04T00:07:13;2.40;;;1.08;;
28068;SDS011;15382;47.578;8.086;2022-11-04T00:17:32;4.90;;;0.98;;
28068;SDS011;15382;47.578;8.086;2022-11-04T00:27:33;2.28;;;1.02;;
28068;SDS011;15382;47.578;8.086;2022-11-04T00:38:06;1.00;;;0.60;;
28068;SDS011;15382;47.578;8.086;2022-11-04T00:48:07;1.40;;;0.40;;
28068;SDS011;15382;47.578;8.086;2022-11-04T00:58:08;0.53;;;0.40;;
28068;SDS011;15382;47.578;8.086;2022-11-04T01:08:09;2.97;;;0.43;;
28068;SDS011;15382;47.578;8.086;2022-11-04T01:18:10;1.23;;;0.50;;
28068;SDS011;15382;47.578;8.086;2022-11-04T01:28:10;1.40;;;0.60;;
28068;SDS011;15382;47.578;8.086;2022-11-04T01:38:11;1.43;;;0.60;;
28068;SDS011;15382;47.578;8.086;2022-11-04T01:48:13;1.53;;;0.70;;
28068;SDS011;15382;47.578;8.086;2022-11-04T02:08:27;1.45;;;0.82;;
28068;SDS011;15382;47.578;8.086;2022-11-04T02:39:19;1.80;;;0.93;;
28068;SDS011;15382;47.578;8.086;2022-11-04T02:59:53;2.08;;;1.38;;
28068;SDS011;15382;47.578;8.086;2022-11-04T03:10:02;3.70;;;1.05;;
28068;SDS011;15382;47.578;8.086;2022-11-04T03:20:08;4.93;;;1.30;;
28068;SDS011;15382;47.578;8.086;2022-11-04T03:30:17;3.97;;;1.33;;
28068;SDS011;15382;47.578;8.086;2022-11-04T03:40:20;2.97;;;1.20;;
28068;SDS011;15382;47.578;8.086;2022-11-04T03:50:27;2.25;;;1.20;;
28068;SDS011;15382;47.578;8.086;2022-11-04T04:00:32;5.13;;;1.83;;
28068;SDS011;15382;47.578;8.086;2022-11-04T04:11:03;8.37;;;2.43;;
28068;SDS011;15382;47.578;8.086;2022-11-04T04:21:02;7.97;;;1.98;;
28068;SDS011;15382;47.578;8.086;2022-11-04T04:31:07;4.40;;;1.85;;
28068;SDS011;15382;47.578;8.086;2022-11-04T04:51:37;5.10;;;1.45;;
28068;SDS011;15382;47.578;8.086;2022-11-04T05:01:43;3.42;;;1.58;;
28068;SDS011;15382;47.578;8.086;2022-11-04T05:11:44;3.13;;;1.53;;
28068;SDS011;15382;47.578;8.086;2022-11-04T05:21:45;16.13;;;5.00;;
28068;SDS011;15382;47.578;8.086;2022-11-04T05:31:46;1.90;;;1.33;;
28068;SDS011;15382;47.578;8.086;2022-11-04T05:41:47;3.97;;;2.00;;
28068;SDS011;15382;47.578;8.086;2022-11-04T05:51:48;2.27;;;1.30;;
28068;SDS011;15382;47.578;8.086;2022-11-04T06:01:49;2.43;;;1.13;;
28068;SDS011;15382;47.578;8.086;2022-11-04T06:11:49;7.37;;;1.50;;
28068;SDS011;15382;47.578;8.086;2022-11-04T06:21:50;5.80;;;2.70;;
28068;SDS011;15382;47.578;8.086;2022-11-04T06:31:51;2.60;;;1.42;;
28068;SDS011;15382;47.578;8.086;2022-11-04T06:41:52;3.17;;;1.53;;
28068;SDS011;15382;47.578;8.086;2022-11-04T06:51:53;9.93;;;4.95;;
28068;SDS011;15382;47.578;8.086;2022-11-04T07:01:54;14.00;;;5.70;;
28068;SDS011;15382;47.578;8.086;2022-11-04T07:11:55;12.57;;;6.13;;
28068;SDS011;15382;47.578;8.086;2022-11-04T07:21:56;12.87;;;6.37;;
28068;SDS011;15382;47.578;8.086;2022-11-04T07:31:57;11.65;;;6.07;;
28068;SDS011;15382;47.578;8.086;2022-11-04T07:41:57;11.00;;;5.80;;
28068;SDS011;15382;47.578;8.086;2022-11-04T07:51:58;9.03;;;3.20;;
28068;SDS011;15382;47.578;8.086;2022-11-04T08:01:59;6.73;;;3.30;;
28068;SDS011;15382;47.578;8.086;2022-11-04T08:12:00;10.43;;;5.93;;
28068;SDS011;15382;47.578;8.086;2022-11-04T08:22:01;13.13;;;8.25;;
28068;SDS011;15382;47.578;8.086;2022-11-04T08:32:02;16.93;;;11.23;;
28068;SDS011;15382;47.578;8.086;2022-11-04T08:42:03;8.70;;;4.20;;
28068;SDS011;15382;47.578;8.086;2022-11-04T08:52:04;7.17;;;3.03;;
28068;SDS011;15382;47.578;8.086;2022-11-04T09:02:05;5.70;;;3.10;;
28068;SDS011;15382;47.578;8.086;2022-11-04T09:12:09;8.30;;;3.73;;
28068;SDS011;15382;47.578;8.086;2022-11-04T09:22:10;11.93;;;4.10;;
28068;SDS011;15382;47.578;8.086;2022-11-04T09:32:11;9.73;;;3.30;;
28068;SDS011;15382;47.578;8.086;2022-11-04T09:42:16;3.73;;;2.63;;
28068;SDS011;15382;47.578;8.086;2022-11-04T09:52:40;6.38;;;2.83;;
28068;SDS011;15382;47.578;8.086;2022-11-04T10:02:45;6.38;;;2.80;;
28068;SDS011;15382;47.578;8.086;2022-11-04T10:23:21;5.78;;;3.17;;
28068;SDS011;15382;47.578;8.086;2022-11-04T10:33:30;7.60;;;3.05;;
28068;SDS011;15382;47.578;8.086;2022-11-04T10:43:37;5.05;;;3.00;;
28068;SDS011;15382;47.578;8.086;2022-11-04T10:53:40;6.35;;;2.60;;
28068;SDS011;15382;47.578;8.086;2022-11-04T11:03:40;5.87;;;2.40;;
28068;SDS011;15382;47.578;8.086;2022-11-04T11:13:43;3.87;;;2.20;;
28068;SDS011;15382;47.578;8.086;2022-11-04T11:23:48;9.95;;;2.20;;
28068;SDS011;15382;47.578;8.086;2022-11-04T11:33:58;3.75;;;2.22;;
28068;SDS011;15382;47.578;8.086;2022-11-04T11:44:05;6.18;;;2.28;;
28068;SDS011;15382;47.578;8.086;2022-11-04T11:54:35;5.60;;;2.00;;
28068;SDS011;15382;47.578;8.086;2022-11-04T12:04:38;5.63;;;2.00;;
28068;SDS011;15382;47.578;8.086;2022-11-04T12:56:16;4.07;;;1.50;;
28068;SDS011;15382;47.578;8.086;2022-11-04T13:06:25;7.25;;;1.38;;
28068;SDS011;15382;47.578;8.086;2022-11-04T13:16:34;1.60;;;1.00;;
28068;SDS011;15382;47.578;8.086;2022-11-04T13:26:38;3.03;;;1.40;;
28068;SDS011;15382;47.578;8.086;2022-11-04T13:46:59;1.58;;;0.68;;
28068;SDS011;15382;47.578;8.086;2022-11-04T14:07:12;9.98;;;4.57;;
28068;SDS011;15382;47.578;8.086;2022-11-04T14:27:40;3.60;;;0.95;;
28068;SDS011;15382;47.578;8.086;2022-11-04T14:37:40;3.60;;;2.28;;
28068;SDS011;15382;47.578;8.086;2022-11-04T14:57:47;4.22;;;1.65;;
28068;SDS011;15382;47.578;8.086;2022-11-04T15:07:49;2.15;;;1.08;;
28068;SDS011;15382;47.578;8.086;2022-11-04T15:17:50;2.93;;;2.17;;
28068;SDS011;15382;47.578;8.086;2022-11-04T15:27:51;2.00;;;1.20;;
28068;SDS011;15382;47.578;8.086;2022-11-04T15:37:53;6.28;;;1.05;;
28068;SDS011;15382;47.578;8.086;2022-11-04T15:58:40;3.78;;;1.25;;
28068;SDS011;15382;47.578;8.086;2022-11-04T16:08:58;6.38;;;2.15;;
28068;SDS011;15382;47.578;8.086;2022-11-04T16:19:00;6.57;;;2.38;;
28068;SDS011;15382;47.578;8.086;2022-11-04T16:29:04;6.03;;;2.47;;
28068;SDS011;15382;47.578;8.086;2022-11-04T16:39:12;6.00;;;3.47;;
28068;SDS011;15382;47.578;8.086;2022-11-04T16:49:13;12.97;;;3.40;;
28068;SDS011;15382;47.578;8.086;2022-11-04T16:59:17;13.65;;;5.65;;
28068;SDS011;15382;47.578;8.086;2022-11-04T17:09:19;15.33;;;7.33;;
28068;SDS011;15382;47.578;8.086;2022-11-04T17:19:22;8.50;;;4.10;;
28068;SDS011;15382;47.578;8.086;2022-11-04T17:29:22;8.43;;;2.77;;
28068;SDS011;15382;47.578;8.086;2022-11-04T17:39:23;6.60;;;2.93;;
28068;SDS011;15382;47.578;8.086;2022-11-04T17:49:24;6.83;;;3.07;;
28068;SDS011;15382;47.578;8.086;2022-11-04T17:59:26;6.85;;;2.38;;
28068;SDS011;15382;47.578;8.086;2022-11-04T18:09:26;3.77;;;2.03;;
28068;SDS011;15382;47.578;8.086;2022-11-04T18:19:27;2.93;;;1.70;;
28068;SDS011;15382;47.578;8.086;2022-11-04T18:29:28;2.23;;;1.30;;
28068;SDS011;15382;47.578;8.086;2022-11-04T18:39:29;2.57;;;1.30;;
28068;SDS011;15382;47.578;8.086;2022-11-04T18:49:30;1.23;;;1.00;;
28068;SDS011;15382;47.578;8.086;2022-11-04T18:59:30;2.23;;;1.00;;
28068;SDS011;15382;47.578;8.086;2022-11-04T19:09:31;3.50;;;1.30;;
28068;SDS011;15382;47.578;8.086;2022-11-04T19:19:32;2.03;;;1.00;;
28068;SDS011;15382;47.578;8.086;2022-11-04T19:29:33;2.90;;;1.20;;
28068;SDS011;15382;47.578;8.086;2022-11-04T19:39:34;2.10;;;1.20;;
28068;SDS011;15382;47.578;8.086;2022-11-04T19:49:34;1.53;;;1.00;;
28068;SDS011;15382;47.578;8.086;2022-11-04T19:59:35;2.20;;;1.10;;
28068;SDS011;15382;47.578;8.086;2022-11-04T20:09:36;2.17;;;1.10;;
28068;SDS011;15382;47.578;8.086;2022-11-04T20:19:37;1.83;;;1.03;;
28068;SDS011;15382;47.578;8.086;2022-11-04T20:29:37;1.83;;;1.00;;
28068;SDS011;15382;47.578;8.086;2022-11-04T20:39:38;3.10;;;1.30;;
28068;SDS011;15382;47.578;8.086;2022-11-04T20:49:39;1.95;;;1.05;;
28068;SDS011;15382;47.578;8.086;2022-11-04T20:59:40;1.47;;;1.00;;
28068;SDS011;15382;47.578;8.086;2022-11-04T21:09:41;3.67;;;1.80;;
28068;SDS011;15382;47.578;8.086;2022-11-04T21:19:42;2.37;;;1.33;;
28068;SDS011;15382;47.578;8.086;2022-11-04T21:29:43;2.97;;;1.58;;
28068;SDS011;15382;47.578;8.086;2022-11-04T21:39:44;4.15;;;0.75;;
28068;SDS011;15382;47.578;8.086;2022-11-04T21:49:44;1.23;;;0.80;;
28068;SDS011;15382;47.578;8.086;2022-11-04T21:59:45;1.50;;;0.87;;
28068;SDS011;15382;47.578;8.086;2022-11-04T22:09:46;2.27;;;1.13;;
28068;SDS011;15382;47.578;8.086;2022-11-04T22:19:47;1.87;;;1.10;;
28068;SDS011;15382;47.578;8.086;2022-11-04T22:29:47;0.83;;;0.50;;
28068;SDS011;15382;47.578;8.086;2022-11-04T22:39:48;2.57;;;1.13;;
28068;SDS011;15382;47.578;8.086;2022-11-04T22:49:49;1.50;;;0.87;;
28068;SDS011;15382;47.578;8.086;2022-11-04T22:59:50;2.70;;;1.13;;
28068;SDS011;15382;47.578;8.086;2022-11-04T23:09:50;1.87;;;1.00;;
28068;SDS011;15382;47.578;8.086;2022-11-04T23:20:11;2.75;;;0.88;;
28068;SDS011;15382;47.578;8.086;2022-11-04T23:30:13;0.80;;;0.60;;
28068;SDS011;15382;47.578;8.086;2022-11-04T23:40:20;1.30;;;1.20;;
28068;SDS011;15382;47.578;8.086;2022-11-04T23:50:22;3.90;;;1.23;;
